Time;durP1;ratioP1;P1;durP2;ratioP2;P2;SDS_P1;SDS_P2;PMS_P1;PMS_P2;Temp;Humidity;BMP_temperature;BMP_pressure;BME280_temperature;BME280_humidity;BME280_pressure;Samples;Min_cycle;Max_cycle;Signal;HPM_P1;HPM_P2
2022/12/28 00:00:06;;;;;;;69.90;5.73;;;6.30;99.90;;;;;;4888759;29;20194;-87
2022/12/28 00:02:32;;;;;;;68.63;6.55;;;6.30;99.90;;;;;;4888508;29;20273;-86
2022/12/28 00:04:58;;;;;;;67.77;6.27;;;6.30;99.90;;;;;;4888407;29;20173;-87
2022/12/28 00:07:23;;;;;;;68.87;6.13;;;6.30;99.90;;;;;;4888614;29;20178;-87
2022/12/28 00:09:49;;;;;;;68.00;6.80;;;6.30;99.90;;;;;;4888872;29;20649;-87
2022/12/28 00:12:14;;;;;;;72.97;6.03;;;6.30;99.90;;;;;;4905473;29;20170;-87
2022/12/28 00:14:40;;;;;;;67.07;6.43;;;6.30;99.90;;;;;;4905261;29;20169;-87
2022/12/28 00:17:06;;;;;;;68.30;5.43;;;6.40;99.90;;;;;;4906190;29;20229;-87
2022/12/28 00:19:31;;;;;;;69.00;5.73;;;6.40;99.90;;;;;;4887689;29;20227;-87
2022/12/28 00:21:57;;;;;;;69.83;6.33;;;6.40;99.90;;;;;;4904894;29;20193;-87
2022/12/28 00:24:24;;;;;;;67.83;5.83;;;6.40;99.90;;;;;;4906590;29;20601;-86
2022/12/28 00:26:50;;;;;;;67.90;6.32;;;6.40;99.90;;;;;;4888397;29;20197;-87
2022/12/28 00:29:17;;;;;;;69.30;5.55;;;6.50;99.90;;;;;;4904659;29;20170;-86
2022/12/28 00:31:44;;;;;;;68.07;5.63;;;6.50;99.90;;;;;;4888139;29;20181;-87
2022/12/28 00:34:10;;;;;;;67.43;7.10;;;6.60;99.90;;;;;;4904312;29;20166;-87
2022/12/28 00:36:36;;;;;;;71.20;7.53;;;6.70;99.90;;;;;;4886633;29;20681;-86
2022/12/28 00:39:02;;;;;;;65.40;6.17;;;6.70;99.90;;;;;;4888113;29;20425;-87
2022/12/28 00:41:27;;;;;;;66.97;7.17;;;6.80;99.90;;;;;;4887348;29;20207;-87
2022/12/28 00:43:53;;;;;;;71.70;7.73;;;6.80;99.90;;;;;;4888413;29;20442;-87
2022/12/28 00:46:19;;;;;;;65.83;7.03;;;6.80;99.90;;;;;;4905117;29;20177;-87
2022/12/28 00:48:44;;;;;;;65.53;7.13;;;6.80;99.90;;;;;;4887562;29;20180;-87
2022/12/28 00:51:13;;;;;;;68.50;7.70;;;6.90;99.90;;;;;;4887620;29;20669;-88
2022/12/28 00:53:38;;;;;;;65.25;6.65;;;6.90;99.90;;;;;;4905061;29;20177;-86
2022/12/28 00:56:16;;;;;;;67.70;6.00;;;6.90;99.90;;;;;;4887466;29;20262;-87
2022/12/28 00:58:43;;;;;;;69.10;6.57;;;7.00;99.90;;;;;;4903808;29;20154;-86
2022/12/28 01:01:28;;;;;;;66.32;6.95;;;7.00;99.90;;;;;;4887401;29;20224;-87
2022/12/28 01:03:57;;;;;;;70.10;6.03;;;7.00;99.90;;;;;;4905331;29;20201;-87
2022/12/28 01:06:24;;;;;;;65.65;6.68;;;7.00;99.90;;;;;;4887668;29;20194;-86
2022/12/28 01:08:50;;;;;;;67.00;6.05;;;7.00;99.90;;;;;;4903925;29;20170;-87
2022/12/28 01:11:21;;;;;;;65.50;5.63;;;7.00;99.90;;;;;;4905029;29;20253;-87
2022/12/28 01:13:49;;;;;;;67.43;6.32;;;7.00;99.90;;;;;;4904465;29;20426;-87
2022/12/28 01:16:23;;;;;;;69.75;5.70;;;7.00;99.90;;;;;;4903897;29;20261;-87
2022/12/28 01:18:52;;;;;;;68.90;6.95;;;7.00;99.90;;;;;;4887256;29;20188;-87
2022/12/28 01:21:20;;;;;;;69.43;6.63;;;6.90;99.90;;;;;;4886436;29;20196;-87
2022/12/28 01:23:47;;;;;;;67.28;7.53;;;6.90;99.90;;;;;;4886583;29;20630;-87
2022/12/28 01:26:13;;;;;;;67.35;7.43;;;6.90;99.90;;;;;;4902729;29;20185;-87
2022/12/28 01:28:39;;;;;;;67.75;7.85;;;6.90;99.90;;;;;;4886369;29;20287;-87
2022/12/28 01:31:07;;;;;;;75.93;10.37;;;6.90;99.90;;;;;;4885951;29;20303;-87
2022/12/28 01:33:33;;;;;;;67.65;8.98;;;6.90;99.90;;;;;;4902301;29;20166;-87
2022/12/28 01:36:05;;;;;;;68.77;10.40;;;6.80;99.90;;;;;;4901912;29;20220;-87
2022/12/28 01:38:31;;;;;;;68.82;11.05;;;6.90;99.90;;;;;;4901690;29;20405;-87
2022/12/28 01:40:56;;;;;;;67.57;10.70;;;6.80;99.90;;;;;;4885116;29;20736;-87
2022/12/28 01:43:42;;;;;;;71.00;13.70;;;6.90;99.90;;;;;;4902850;29;20198;-87
2022/12/28 01:46:11;;;;;;;72.10;11.95;;;6.90;99.90;;;;;;4902293;29;20162;-87
2022/12/28 01:48:50;;;;;;;68.10;13.20;;;6.90;99.90;;;;;;4886263;29;20178;-87
2022/12/28 01:51:21;;;;;;;71.30;14.77;;;6.90;99.90;;;;;;4884727;29;20209;-87
2022/12/28 01:53:50;;;;;;;66.90;10.13;;;7.00;99.90;;;;;;4885102;29;20197;-87
2022/12/28 01:56:16;;;;;;;67.03;10.10;;;7.10;99.90;;;;;;4885572;29;20253;-87
2022/12/28 01:58:42;;;;;;;67.45;9.15;;;7.10;99.90;;;;;;4885826;29;20170;-87
2022/12/28 02:01:08;;;;;;;67.50;10.75;;;7.10;99.90;;;;;;4885895;29;20186;-87
2022/12/28 02:03:35;;;;;;;66.82;8.73;;;7.10;99.90;;;;;;4901682;29;20212;-87
2022/12/28 02:06:05;;;;;;;70.50;10.57;;;7.10;99.90;;;;;;4884620;29;20277;-87
2022/12/28 02:09:10;;;;;;;67.13;11.15;;;7.10;99.90;;;;;;4885979;29;20178;-87
2022/12/28 02:11:37;;;;;;;71.40;12.05;;;7.10;99.90;;;;;;4874219;29;20186;-87
2022/12/28 02:14:05;;;;;;;70.57;12.13;;;7.10;99.90;;;;;;4902709;29;20166;-87
2022/12/28 02:16:30;;;;;;;69.18;16.25;;;7.20;99.90;;;;;;4902144;29;20196;-87
2022/12/28 02:18:56;;;;;;;69.00;13.30;;;7.20;99.90;;;;;;4905531;29;20178;-87
2022/12/28 02:21:43;;;;;;;70.43;8.60;;;7.30;99.90;;;;;;4889779;29;20193;-87
2022/12/28 02:24:08;;;;;;;69.07;9.43;;;7.30;99.90;;;;;;4890383;29;20428;-86
2022/12/28 02:26:55;;;;;;;70.27;10.40;;;7.40;99.90;;;;;;4890021;29;20174;-87
2022/12/28 02:29:30;;;;;;;69.78;9.35;;;7.40;99.90;;;;;;4906971;29;20792;-87
2022/12/28 02:32:19;;;;;;;67.50;12.13;;;7.40;99.90;;;;;;4888066;29;20184;-87
2022/12/28 02:34:59;;;;;;;69.00;10.57;;;7.40;99.90;;;;;;4887934;29;20170;-87
2022/12/28 02:37:42;;;;;;;66.85;10.80;;;7.40;99.90;;;;;;4889703;29;20169;-87
2022/12/28 02:40:17;;;;;;;67.20;9.77;;;7.50;99.90;;;;;;4907116;29;20197;-87
2022/12/28 02:42:45;;;;;;;66.40;7.00;;;7.50;99.90;;;;;;4888569;29;20169;-87
2022/12/28 02:51:04;;;;;;;65.60;6.50;;;7.50;99.90;;;;;;4907468;29;20691;-87
2022/12/28 02:53:45;;;;;;;70.75;6.72;;;7.60;99.90;;;;;;4907461;29;20217;-87
2022/12/28 02:56:25;;;;;;;67.68;6.13;;;7.50;99.90;;;;;;4890208;29;20201;-87
2022/12/28 02:59:10;;;;;;;66.20;6.93;;;7.60;99.90;;;;;;4890570;29;20177;-87
2022/12/28 03:01:46;;;;;;;66.93;6.10;;;7.60;99.90;;;;;;4917941;29;20154;-87
2022/12/28 03:04:40;;;;;;;69.10;6.80;;;7.60;99.90;;;;;;4891956;29;20648;-87
2022/12/28 03:10:20;;;;;;;65.75;6.20;;;7.60;99.90;;;;;;4905485;29;20281;-87
2022/12/28 03:13:02;;;;;;;66.25;6.57;;;7.60;99.90;;;;;;4906893;29;20174;-87
2022/12/28 03:15:32;;;;;;;68.53;7.70;;;7.60;99.90;;;;;;4906992;29;20190;-87
2022/12/28 03:31:53;;;;;;;66.85;8.02;;;7.80;99.90;;;;;;4906712;29;20169;-87
2022/12/28 03:34:18;;;;;;;65.07;6.40;;;7.80;99.90;;;;;;4888686;29;20578;-87
2022/12/28 03:36:52;;;;;;;67.90;7.80;;;7.80;99.90;;;;;;4905818;29;20201;-86
2022/12/28 03:39:30;;;;;;;68.47;7.75;;;7.90;99.90;;;;;;4889470;29;20204;-86
2022/12/28 03:45:03;;;;;;;66.65;7.55;;;7.90;99.90;;;;;;4906106;29;20170;-87
2022/12/28 03:47:30;;;;;;;65.80;6.50;;;7.90;99.90;;;;;;4906166;29;20162;-86
2022/12/28 03:49:57;;;;;;;66.93;7.45;;;7.90;99.90;;;;;;4906177;29;20577;-87
2022/12/28 03:52:23;;;;;;;65.53;6.60;;;8.00;99.90;;;;;;4888049;29;20167;-86
2022/12/28 03:54:49;;;;;;;68.20;12.23;;;7.90;99.90;;;;;;4904750;29;20230;-87
2022/12/28 03:57:15;;;;;;;67.90;8.03;;;7.90;99.90;;;;;;4888908;29;20513;-87
2022/12/28 03:59:41;;;;;;;66.10;7.65;;;7.90;99.90;;;;;;4905331;29;20189;-87
2022/12/28 04:02:07;;;;;;;67.33;9.17;;;8.00;99.90;;;;;;4905492;29;20166;-87
2022/12/28 04:04:32;;;;;;;65.50;7.20;;;8.00;99.90;;;;;;4905666;29;20168;-87
2022/12/28 04:06:58;;;;;;;67.20;8.47;;;8.00;99.90;;;;;;4905061;29;20173;-86
2022/12/28 04:09:23;;;;;;;67.57;8.10;;;8.00;99.90;;;;;;4906245;29;20190;-87
2022/12/28 04:11:49;;;;;;;71.70;13.33;;;8.00;99.90;;;;;;4888792;29;20629;-87
2022/12/28 04:14:15;;;;;;;70.80;9.50;;;8.00;99.90;;;;;;4887879;29;20178;-87
2022/12/28 04:16:40;;;;;;;66.27;9.40;;;8.00;99.90;;;;;;4904972;29;20198;-87
2022/12/28 04:19:06;;;;;;;70.10;9.60;;;8.00;99.90;;;;;;4905355;29;20177;-86
2022/12/28 04:21:32;;;;;;;70.23;9.50;;;8.00;99.90;;;;;;4888048;29;20170;-86
2022/12/28 04:23:57;;;;;;;67.30;8.77;;;8.10;99.90;;;;;;4888088;29;20177;-87
2022/12/28 04:26:23;;;;;;;67.00;10.77;;;8.10;99.90;;;;;;4905633;29;20170;-87
2022/12/28 04:28:48;;;;;;;67.97;7.63;;;8.10;99.90;;;;;;4887921;29;20170;-87
2022/12/28 04:31:14;;;;;;;65.87;7.47;;;8.10;99.90;;;;;;4887961;29;20261;-87
2022/12/28 04:33:40;;;;;;;66.67;8.20;;;8.10;99.90;;;;;;4887959;29;20170;-87
2022/12/28 04:36:07;;;;;;;66.40;8.45;;;8.10;99.90;;;;;;4954130;23;20229;-83
2022/12/28 04:38:33;;;;;;;66.57;9.27;;;8.10;99.90;;;;;;4904102;29;20203;-83
2022/12/28 04:41:00;;;;;;;66.47;7.35;;;8.20;99.90;;;;;;4886343;29;20650;-83
2022/12/28 04:43:25;;;;;;;66.13;7.72;;;8.10;99.90;;;;;;4903538;29;20174;-84
2022/12/28 04:46:02;;;;;;;67.60;7.47;;;8.20;99.90;;;;;;4904526;29;20698;-83
2022/12/28 04:48:28;;;;;;;67.47;9.10;;;8.20;99.90;;;;;;4904624;29;20533;-84
2022/12/28 04:50:54;;;;;;;67.47;8.17;;;8.20;99.90;;;;;;4904108;29;20280;-84
2022/12/28 04:53:20;;;;;;;66.45;8.57;;;8.10;99.90;;;;;;4903550;29;20190;-83
2022/12/28 04:55:46;;;;;;;66.75;8.82;;;8.20;99.90;;;;;;4903281;29;20732;-83
2022/12/28 04:58:12;;;;;;;69.40;9.17;;;8.20;99.90;;;;;;4904166;29;20196;-84
2022/12/28 05:00:38;;;;;;;67.67;7.50;;;8.20;99.90;;;;;;4904692;29;20205;-84
2022/12/28 05:03:04;;;;;;;68.20;8.30;;;8.20;99.90;;;;;;4904735;29;20173;-83
2022/12/28 05:05:30;;;;;;;67.72;7.97;;;8.20;99.90;;;;;;4902824;29;20637;-84
2022/12/28 05:08:00;;;;;;;68.95;7.80;;;8.20;99.90;;;;;;4902700;29;20173;-83
2022/12/28 05:10:26;;;;;;;67.25;7.28;;;8.30;99.90;;;;;;4886735;29;20408;-84
2022/12/28 05:12:53;;;;;;;66.23;8.60;;;8.30;99.90;;;;;;4886555;29;20205;-83
2022/12/28 05:15:18;;;;;;;65.50;7.45;;;8.30;99.90;;;;;;4903059;29;20457;-84
2022/12/28 05:17:44;;;;;;;66.00;7.70;;;8.30;99.90;;;;;;4903391;29;20205;-84
2022/12/28 05:20:10;;;;;;;66.10;8.53;;;8.30;99.90;;;;;;4903621;29;20221;-84
2022/12/28 05:22:36;;;;;;;66.00;8.63;;;8.40;99.90;;;;;;4903164;29;20190;-84
2022/12/28 05:25:02;;;;;;;67.87;8.07;;;8.40;99.90;;;;;;4903434;29;20169;-83
2022/12/28 05:27:27;;;;;;;65.17;7.43;;;8.40;99.90;;;;;;4885810;29;20181;-84
2022/12/28 05:29:53;;;;;;;67.00;7.43;;;8.40;99.90;;;;;;4903405;29;20558;-84
2022/12/28 05:32:19;;;;;;;67.03;9.77;;;8.40;99.90;;;;;;4902786;29;20185;-84
2022/12/28 05:34:44;;;;;;;67.40;8.20;;;8.40;99.90;;;;;;4903997;29;20173;-84
2022/12/28 05:37:10;;;;;;;66.50;9.70;;;8.40;99.90;;;;;;4903047;29;20182;-84
2022/12/28 05:39:36;;;;;;;68.83;8.43;;;8.40;99.90;;;;;;4902568;29;20205;-84
2022/12/28 05:42:02;;;;;;;67.10;9.67;;;8.50;99.90;;;;;;4902854;29;20402;-83
2022/12/28 05:44:29;;;;;;;69.32;8.52;;;8.50;99.90;;;;;;4903019;29;20174;-84
2022/12/28 05:46:54;;;;;;;65.68;7.80;;;8.50;99.90;;;;;;4903191;29;20174;-84
2022/12/28 05:49:20;;;;;;;66.60;9.37;;;8.50;99.90;;;;;;4885874;29;20193;-84
2022/12/28 05:51:50;;;;;;;80.90;11.00;;;8.50;99.90;;;;;;4904516;29;20154;-84
2022/12/28 05:54:16;;;;;;;68.05;8.27;;;8.50;99.90;;;;;;4889878;29;20186;-84
2022/12/28 05:56:42;;;;;;;68.50;9.43;;;8.50;99.90;;;;;;4906503;29;20245;-84
2022/12/28 05:59:07;;;;;;;66.10;8.30;;;8.50;99.90;;;;;;4906617;29;20839;-84
2022/12/28 06:01:36;;;;;;;67.50;10.37;;;8.50;99.90;;;;;;4906551;29;20170;-84
2022/12/28 06:04:05;;;;;;;67.85;9.65;;;8.50;99.90;;;;;;4906870;29;20929;-84
2022/12/28 06:06:32;;;;;;;67.72;9.60;;;8.60;99.90;;;;;;4906161;29;20166;-83
2022/12/28 06:08:59;;;;;;;66.50;8.98;;;8.60;99.90;;;;;;4906585;29;20174;-83
2022/12/28 06:11:26;;;;;;;66.88;8.13;;;8.60;99.90;;;;;;4906536;29;20162;-83
2022/12/28 06:13:52;;;;;;;67.68;7.75;;;8.60;99.90;;;;;;4890642;29;20181;-84
2022/12/28 06:16:21;;;;;;;66.70;8.05;;;8.70;99.90;;;;;;4907500;29;20197;-84
2022/12/28 06:18:47;;;;;;;67.50;9.00;;;8.70;99.90;;;;;;4907733;29;20162;-83
2022/12/28 06:21:17;;;;;;;68.38;8.45;;;8.70;99.90;;;;;;4891228;29;20196;-84
2022/12/28 06:23:44;;;;;;;65.82;6.18;;;8.70;99.90;;;;;;4908909;29;20150;-83
2022/12/28 06:26:12;;;;;;;66.25;6.78;;;8.70;99.90;;;;;;4892250;29;20226;-84
2022/12/28 06:28:39;;;;;;;69.90;7.88;;;8.70;99.90;;;;;;4890928;29;20170;-84
2022/12/28 06:31:12;;;;;;;65.75;7.28;;;8.70;99.90;;;;;;4908489;29;20673;-84
2022/12/28 06:33:38;;;;;;;65.10;6.57;;;8.70;99.90;;;;;;4892255;29;20186;-85
2022/12/28 06:36:04;;;;;;;66.60;7.80;;;8.80;99.90;;;;;;4891710;29;20201;-85
2022/12/28 06:38:31;;;;;;;67.07;7.10;;;8.70;99.90;;;;;;4907041;29;20173;-84
2022/12/28 06:41:02;;;;;;;65.28;6.05;;;8.80;99.90;;;;;;4891023;29;20468;-84
2022/12/28 06:43:31;;;;;;;66.38;6.35;;;8.80;99.90;;;;;;4906642;29;20166;-84
2022/12/28 06:45:57;;;;;;;65.85;6.50;;;8.80;99.90;;;;;;4889983;29;20174;-84
2022/12/28 06:48:22;;;;;;;66.23;6.00;;;8.90;99.90;;;;;;4906560;29;20185;-84
2022/12/28 06:50:58;;;;;;;69.07;6.60;;;8.80;99.90;;;;;;4906820;29;20797;-84
2022/12/28 06:53:28;;;;;;;67.50;7.07;;;8.80;99.90;;;;;;4890006;29;20180;-84
2022/12/28 06:55:59;;;;;;;67.18;8.90;;;8.80;99.90;;;;;;4907980;29;20189;-85
2022/12/28 06:58:27;;;;;;;66.68;8.40;;;8.70;99.90;;;;;;4889923;29;20532;-84
2022/12/28 07:00:53;;;;;;;68.55;7.78;;;8.70;99.90;;;;;;4889154;29;20197;-84
2022/12/28 07:03:19;;;;;;;66.82;8.18;;;8.70;99.90;;;;;;4905486;29;20171;-83
2022/12/28 07:05:45;;;;;;;66.88;8.40;;;8.80;99.90;;;;;;4906554;29;20174;-84
2022/12/28 07:08:11;;;;;;;70.40;9.23;;;8.80;99.90;;;;;;4906341;29;20181;-84
2022/12/28 07:10:37;;;;;;;67.07;8.87;;;8.70;99.90;;;;;;4906094;29;20274;-84
2022/12/28 07:13:04;;;;;;;68.03;9.00;;;8.70;99.90;;;;;;4888653;29;20428;-84
2022/12/28 07:15:29;;;;;;;70.25;8.90;;;8.80;99.90;;;;;;4888805;29;20446;-84
2022/12/28 07:17:57;;;;;;;67.50;8.23;;;8.70;99.90;;;;;;4906318;29;20177;-84
2022/12/28 07:20:22;;;;;;;70.03;10.73;;;8.70;99.90;;;;;;4889444;29;20445;-84
2022/12/28 07:22:48;;;;;;;67.10;8.57;;;8.80;99.90;;;;;;4905985;29;20170;-84
2022/12/28 07:25:14;;;;;;;67.80;7.27;;;8.80;99.90;;;;;;4905483;29;20209;-83
2022/12/28 07:27:39;;;;;;;68.87;9.53;;;8.80;99.90;;;;;;4889264;29;20197;-84
2022/12/28 07:30:06;;;;;;;68.17;7.63;;;8.80;99.90;;;;;;4905949;29;20200;-84
2022/12/28 07:32:35;;;;;;;69.93;8.52;;;8.80;99.90;;;;;;4905596;29;20174;-83
2022/12/28 07:35:01;;;;;;;74.10;14.98;;;8.90;99.90;;;;;;4888619;29;20185;-84
2022/12/28 07:37:26;;;;;;;67.00;8.00;;;8.90;99.90;;;;;;4889588;29;20538;-84
2022/12/28 07:39:52;;;;;;;66.77;7.20;;;8.90;99.90;;;;;;4889255;29;20198;-84
2022/12/28 07:42:18;;;;;;;65.90;6.33;;;9.00;99.90;;;;;;4888890;29;20185;-84
2022/12/28 07:44:47;;;;;;;65.80;5.33;;;9.00;99.90;;;;;;4888541;29;20173;-84
2022/12/28 07:47:13;;;;;;;65.18;5.88;;;9.00;99.90;;;;;;4905509;29;20177;-84
2022/12/28 07:49:39;;;;;;;65.85;5.93;;;9.00;99.90;;;;;;4905685;29;20190;-84
2022/12/28 07:52:05;;;;;;;70.70;10.73;;;9.00;99.90;;;;;;4888586;29;20226;-84
2022/12/28 07:54:31;;;;;;;66.17;5.80;;;9.00;99.90;;;;;;4906630;29;20403;-84
2022/12/28 07:56:57;;;;;;;66.80;8.63;;;9.00;99.90;;;;;;4888515;29;20490;-85
2022/12/28 07:59:22;;;;;;;64.87;5.60;;;9.00;99.90;;;;;;4889567;29;20474;-84
2022/12/28 08:01:51;;;;;;;64.80;6.13;;;9.00;99.90;;;;;;4890448;29;20215;-83
2022/12/28 08:04:17;;;;;;;65.05;5.78;;;9.00;99.90;;;;;;4907017;29;20169;-84
2022/12/28 08:06:44;;;;;;;66.57;7.07;;;9.00;99.90;;;;;;4907975;29;20174;-83
2022/12/28 08:09:12;;;;;;;65.30;6.32;;;9.00;99.90;;;;;;4904469;29;20434;-84
2022/12/28 08:11:40;;;;;;;66.50;7.05;;;9.00;99.90;;;;;;4905668;29;20534;-84
2022/12/28 08:14:07;;;;;;;65.35;6.63;;;9.10;99.90;;;;;;4888241;29;20166;-84
2022/12/28 08:16:36;;;;;;;66.25;5.50;;;9.10;99.90;;;;;;4887199;29;20205;-84
2022/12/28 08:19:02;;;;;;;66.07;8.77;;;9.10;99.90;;;;;;4905129;29;20190;-83
2022/12/28 08:21:37;;;;;;;69.13;6.55;;;9.10;99.90;;;;;;4904939;29;20200;-84
2022/12/28 08:24:04;;;;;;;66.68;7.05;;;9.10;99.90;;;;;;4904811;29;20157;-83
2022/12/28 08:26:40;;;;;;;65.07;5.68;;;9.10;99.90;;;;;;4904335;29;20542;-84
2022/12/28 08:29:09;;;;;;;67.25;6.72;;;9.20;99.90;;;;;;4887693;29;20264;-83
2022/12/28 08:31:38;;;;;;;67.53;6.80;;;9.10;99.90;;;;;;4888254;29;20531;-84
2022/12/28 08:34:05;;;;;;;68.20;6.60;;;9.20;99.90;;;;;;4887914;29;20170;-84
2022/12/28 08:36:31;;;;;;;65.25;5.47;;;9.20;99.90;;;;;;4904831;29;20205;-84
2022/12/28 08:38:58;;;;;;;64.90;5.60;;;9.20;99.90;;;;;;4888066;29;20213;-84
2022/12/28 08:41:25;;;;;;;65.43;5.80;;;9.30;99.90;;;;;;4887838;29;20177;-83
2022/12/28 08:43:52;;;;;;;65.75;6.88;;;9.30;99.90;;;;;;4905260;29;20174;-84
2022/12/28 08:46:23;;;;;;;66.63;7.57;;;9.30;99.90;;;;;;4905406;29;20178;-83
2022/12/28 08:48:51;;;;;;;66.75;7.15;;;9.30;99.90;;;;;;4909177;29;20214;-83
2022/12/28 08:51:21;;;;;;;66.40;7.25;;;9.30;99.90;;;;;;4892314;29;20190;-82
2022/12/28 08:53:50;;;;;;;67.68;6.07;;;9.30;99.90;;;;;;4907419;29;20262;-84
2022/12/28 08:56:18;;;;;;;67.05;7.38;;;9.40;99.90;;;;;;4893067;29;20194;-83
2022/12/28 08:58:45;;;;;;;67.10;7.00;;;9.40;99.90;;;;;;4910583;29;20634;-84
2022/12/28 09:01:18;;;;;;;65.05;6.30;;;9.40;99.90;;;;;;4910452;29;20654;-83
2022/12/28 09:03:46;;;;;;;66.38;9.27;;;9.40;99.90;;;;;;4910833;29;20172;-83
2022/12/28 09:06:14;;;;;;;65.85;6.60;;;9.40;99.90;;;;;;4910901;29;20170;-84
2022/12/28 09:08:40;;;;;;;65.18;6.20;;;9.40;99.90;;;;;;4908629;29;20174;-84
2022/12/28 09:11:09;;;;;;;65.82;7.63;;;9.50;99.90;;;;;;4891238;29;20193;-83
2022/12/28 09:13:35;;;;;;;66.20;8.00;;;9.40;99.90;;;;;;4891005;29;20638;-83
2022/12/28 09:16:10;;;;;;;66.78;10.98;;;9.40;99.90;;;;;;4903833;29;20190;-83
2022/12/28 09:18:36;;;;;;;66.88;10.00;;;9.50;99.90;;;;;;4905206;29;20221;-83
2022/12/28 09:21:08;;;;;;;67.75;8.50;;;9.50;99.90;;;;;;4888482;29;20221;-83
2022/12/28 09:23:35;;;;;;;65.80;8.18;;;9.50;99.90;;;;;;4906229;29;20614;-84
2022/12/28 09:26:12;;;;;;;66.40;9.73;;;9.50;99.90;;;;;;4906202;29;20224;-84
2022/12/28 09:28:38;;;;;;;68.05;10.93;;;9.50;99.90;;;;;;4906367;29;20173;-84
2022/12/28 09:31:06;;;;;;;66.03;10.20;;;9.50;99.90;;;;;;4904123;29;20230;-83
2022/12/28 09:36:18;;;;;;;66.68;8.02;;;9.50;99.90;;;;;;4905002;29;20232;-82
2022/12/28 09:38:47;;;;;;;66.53;7.40;;;9.50;99.90;;;;;;4888916;29;20169;-84
2022/12/28 09:41:22;;;;;;;67.50;9.00;;;9.60;99.90;;;;;;4903785;29;20213;-83
2022/12/28 09:43:54;;;;;;;65.57;6.38;;;9.70;99.90;;;;;;4886204;29;20190;-84
2022/12/28 09:46:22;;;;;;;65.97;7.55;;;9.70;99.90;;;;;;4887324;29;20169;-84
2022/12/28 09:48:56;;;;;;;65.53;7.50;;;9.70;99.90;;;;;;4905607;29;20166;-83
2022/12/28 09:51:31;;;;;;;65.97;6.28;;;9.70;99.90;;;;;;4905791;29;20246;-83
2022/12/28 09:53:56;;;;;;;64.13;5.10;;;9.70;99.90;;;;;;4905438;29;20164;-82
2022/12/28 09:56:52;;;;;;;64.73;6.13;;;9.80;99.90;;;;;;4889243;29;20197;-84
2022/12/28 09:59:22;;;;;;;65.05;6.72;;;9.80;99.90;;;;;;4873664;29;20810;-82
2022/12/28 10:01:57;;;;;;;65.28;5.57;;;9.70;99.90;;;;;;4904825;29;20182;-82
2022/12/28 10:04:23;;;;;;;67.55;6.28;;;9.70;99.90;;;;;;4889371;29;20166;-82
2022/12/28 10:06:49;;;;;;;69.65;5.75;;;9.80;99.90;;;;;;4886979;29;20213;-82
2022/12/28 10:09:24;;;;;;;65.20;5.63;;;9.80;99.90;;;;;;4903139;29;20170;-82
2022/12/28 10:11:50;;;;;;;66.07;6.75;;;9.90;99.90;;;;;;4903952;29;20702;-82
2022/12/28 10:14:26;;;;;;;64.77;5.70;;;9.90;99.90;;;;;;4903450;29;20275;-82
2022/12/28 10:16:53;;;;;;;65.47;6.70;;;9.90;99.90;;;;;;4886379;29;20249;-83
2022/12/28 10:19:23;;;;;;;65.57;6.28;;;9.90;99.90;;;;;;4903497;29;20550;-82
2022/12/28 10:21:59;;;;;;;66.10;6.30;;;10.00;99.90;;;;;;4903311;29;20577;-82
2022/12/28 10:24:25;;;;;;;66.93;7.95;;;10.00;99.90;;;;;;4888105;29;20169;-83
2022/12/28 10:26:51;;;;;;;65.57;7.20;;;10.00;99.90;;;;;;4886086;29;20178;-82
2022/12/28 10:29:20;;;;;;;66.55;5.75;;;10.10;99.90;;;;;;4904826;29;20434;-82
2022/12/28 10:32:05;;;;;;;65.13;5.50;;;10.10;99.90;;;;;;4888246;29;20182;-82
2022/12/28 10:34:32;;;;;;;68.68;6.10;;;10.20;99.90;;;;;;4904830;29;20178;-82
2022/12/28 10:37:16;;;;;;;66.10;6.22;;;10.20;99.90;;;;;;4968551;23;20225;-86
2022/12/28 10:40:19;;;;;;;65.05;5.63;;;10.20;99.90;;;;;;4908429;29;20189;-87
2022/12/28 10:42:50;;;;;;;65.80;6.05;;;10.30;99.90;;;;;;4898972;29;20177;-86
2022/12/28 10:45:21;;;;;;;67.43;5.47;;;10.30;99.90;;;;;;4908205;29;20652;-86
2022/12/28 10:47:56;;;;;;;67.57;5.93;;;10.30;99.90;;;;;;4907806;29;20167;-86
2022/12/28 10:50:51;;;;;;;66.57;7.45;;;10.30;99.90;;;;;;4907641;29;20249;-86
2022/12/28 10:53:16;;;;;;;64.57;5.32;;;10.20;99.90;;;;;;4906539;29;20170;-86
2022/12/28 10:55:42;;;;;;;67.63;6.13;;;10.20;99.90;;;;;;4906434;29;20531;-87
2022/12/28 10:58:34;;;;;;;66.53;7.43;;;10.20;99.90;;;;;;4907322;29;20252;-86
2022/12/28 11:01:33;;;;;;;69.30;6.53;;;10.20;99.90;;;;;;4901621;29;20198;-86
2022/12/28 11:04:06;;;;;;;66.40;6.70;;;10.20;99.90;;;;;;4909512;29;20218;-86
2022/12/28 11:06:57;;;;;;;65.45;8.13;;;10.30;99.90;;;;;;4906771;29;20163;-86
2022/12/28 11:09:27;;;;;;;68.55;6.93;;;10.30;99.90;;;;;;4906213;29;20544;-86
2022/12/28 11:12:25;;;;;;;67.82;7.38;;;10.30;99.90;;;;;;4906867;29;20205;-86
2022/12/28 11:14:55;;;;;;;65.75;6.25;;;10.30;99.90;;;;;;4891159;29;20173;-86
2022/12/28 11:17:24;;;;;;;67.95;6.75;;;10.30;99.90;;;;;;4892183;29;20205;-86
2022/12/28 11:20:17;;;;;;;69.57;7.18;;;10.40;99.90;;;;;;4908508;29;20182;-86
2022/12/28 11:22:43;;;;;;;70.57;7.22;;;10.40;99.90;;;;;;4907932;29;20151;-86
2022/12/28 11:25:15;;;;;;;67.22;6.07;;;10.30;99.90;;;;;;4909009;29;20219;-86
2022/12/28 11:27:42;;;;;;;67.43;6.57;;;10.40;99.90;;;;;;4907072;29;20152;-86
2022/12/28 11:30:16;;;;;;;70.15;11.65;;;10.50;99.90;;;;;;4887853;29;20608;-86
2022/12/28 11:32:48;;;;;;;66.85;5.75;;;10.50;99.90;;;;;;4902913;29;20170;-86
2022/12/28 11:35:22;;;;;;;68.13;6.13;;;10.40;99.90;;;;;;4904444;29;20146;-86
2022/12/28 11:37:51;;;;;;;66.57;5.72;;;10.30;99.90;;;;;;4907786;29;20222;-86
2022/12/28 11:40:44;;;;;;;68.35;5.80;;;10.30;99.90;;;;;;4907628;29;20618;-86
2022/12/28 11:43:28;;;;;;;65.93;6.13;;;10.30;99.90;;;;;;4906921;29;20194;-86
2022/12/28 11:45:59;;;;;;;66.82;7.10;;;10.40;99.90;;;;;;4907218;29;20165;-87
2022/12/28 11:48:43;;;;;;;67.10;7.50;;;10.40;99.90;;;;;;4907029;29;20174;-86
2022/12/28 11:51:21;;;;;;;66.57;8.30;;;10.50;99.90;;;;;;4907374;29;20185;-86
2022/12/28 11:53:48;;;;;;;67.03;6.30;;;10.40;99.90;;;;;;4905821;29;20195;-86
2022/12/28 11:56:15;;;;;;;69.28;6.88;;;10.30;99.90;;;;;;4905267;29;20190;-86
2022/12/28 11:58:42;;;;;;;67.03;7.35;;;10.40;99.90;;;;;;4907356;29;20218;-86
2022/12/28 12:01:12;;;;;;;67.32;6.07;;;10.30;99.90;;;;;;4905303;29;20197;-86
2022/12/28 12:04:17;;;;;;;67.18;6.88;;;10.40;99.90;;;;;;4906188;29;20166;-86
2022/12/28 12:06:43;;;;;;;65.47;5.03;;;10.30;99.90;;;;;;4875960;29;20196;-86
2022/12/28 12:09:24;;;;;;;70.65;5.95;;;10.40;99.90;;;;;;4904993;29;20174;-86
2022/12/28 12:11:54;;;;;;;65.85;5.60;;;10.40;99.90;;;;;;4906583;29;20177;-86
2022/12/28 12:14:31;;;;;;;67.05;5.15;;;10.40;99.90;;;;;;4907399;29;20231;-86
2022/12/28 12:17:17;;;;;;;64.70;4.50;;;10.40;99.90;;;;;;4907087;29;20654;-86
2022/12/28 12:19:52;;;;;;;66.00;4.78;;;10.30;99.90;;;;;;4907179;29;20197;-86
2022/12/28 12:22:32;;;;;;;64.90;4.20;;;10.40;99.90;;;;;;4906347;29;20158;-86
2022/12/28 12:25:14;;;;;;;65.70;4.50;;;10.30;99.90;;;;;;4903266;29;20177;-86
2022/12/28 12:27:46;;;;;;;65.93;4.65;;;10.30;99.90;;;;;;4905325;29;20214;-86
2022/12/28 12:30:18;;;;;;;66.72;4.80;;;10.30;99.90;;;;;;4905454;29;20189;-86
2022/12/28 12:33:03;;;;;;;65.88;4.63;;;10.40;99.90;;;;;;4905337;29;20165;-86
2022/12/28 12:35:37;;;;;;;66.90;4.85;;;10.40;99.90;;;;;;4905557;29;20626;-86
2022/12/28 12:38:19;;;;;;;66.15;5.05;;;10.30;99.90;;;;;;4904890;29;20578;-86
2022/12/28 12:41:26;;;;;;;67.18;4.15;;;10.30;99.90;;;;;;4902345;29;20186;-86
2022/12/28 12:43:51;;;;;;;64.97;3.85;;;10.30;99.90;;;;;;4873359;29;20174;-86
2022/12/28 12:46:42;;;;;;;65.53;3.93;;;10.40;99.90;;;;;;4900651;29;20549;-86
2022/12/28 12:49:16;;;;;;;66.03;4.07;;;10.40;99.90;;;;;;4902164;29;20630;-86
2022/12/28 12:52:18;;;;;;;66.95;5.45;;;10.40;99.90;;;;;;4901739;29;20184;-86
2022/12/28 12:55:12;;;;;;;66.25;4.13;;;10.50;99.90;;;;;;4900446;29;20649;-86
2022/12/28 12:57:56;;;;;;;65.40;4.60;;;10.40;99.90;;;;;;4900616;29;20189;-86
2022/12/28 13:00:25;;;;;;;69.35;3.83;;;10.40;99.90;;;;;;4899452;29;20217;-86
2022/12/28 13:03:13;;;;;;;67.75;4.07;;;10.30;99.90;;;;;;4898046;29;20178;-86
2022/12/28 13:05:51;;;;;;;66.85;5.00;;;10.40;99.90;;;;;;4900227;29;20187;-86
2022/12/28 13:08:58;;;;;;;71.75;4.32;;;10.40;99.90;;;;;;4901108;29;20694;-86
2022/12/28 13:11:24;;;;;;;66.75;4.30;;;10.40;99.90;;;;;;4882086;29;20553;-86
2022/12/28 13:13:52;;;;;;;67.00;4.60;;;10.30;99.90;;;;;;4898367;29;20226;-86
2022/12/28 13:16:24;;;;;;;64.60;3.67;;;10.40;99.90;;;;;;4898390;29;20261;-86
2022/12/28 13:18:58;;;;;;;69.80;4.82;;;10.40;99.90;;;;;;4899034;29;20170;-87
2022/12/28 13:21:27;;;;;;;64.97;4.10;;;10.30;99.90;;;;;;4899285;29;20166;-86
2022/12/28 13:23:53;;;;;;;66.15;4.72;;;10.40;99.90;;;;;;4899076;29;20253;-87
2022/12/28 13:26:27;;;;;;;68.30;5.40;;;10.40;99.90;;;;;;4898929;29;20170;-86
2022/12/28 13:29:00;;;;;;;69.65;5.50;;;10.40;99.90;;;;;;4898435;29;20174;-86